createdAt,value
2018-09-17T00:02:35.291Z,3.87
2018-09-17T00:07:38.743Z,3.90
2018-09-17T00:12:42.129Z,4.00
2018-09-17T00:17:45.506Z,3.77
2018-09-17T00:22:49.024Z,4.07
2018-09-17T00:27:52.828Z,4.20
2018-09-17T00:32:56.210Z,3.87
2018-09-17T00:38:00.235Z,3.90
2018-09-17T00:43:03.867Z,4.30
2018-09-17T00:48:06.967Z,3.80
2018-09-17T00:53:10.490Z,4.37
2018-09-17T00:58:13.892Z,4.70
2018-09-17T01:03:17.318Z,4.10
2018-09-17T01:08:20.938Z,4.10
2018-09-17T01:13:24.815Z,4.13
2018-09-17T01:18:28.302Z,4.07
2018-09-17T01:23:32.183Z,4.70
2018-09-17T01:28:35.579Z,3.93
2018-09-17T01:33:38.978Z,3.80
2018-09-17T01:38:42.379Z,4.50
2018-09-17T01:43:45.903Z,4.17
2018-09-17T01:48:49.262Z,4.53
2018-09-17T01:53:52.678Z,4.13
2018-09-17T01:58:56.032Z,3.93
2018-09-17T02:03:59.505Z,4.30
2018-09-17T02:09:03.093Z,4.40
2018-09-17T02:14:06.469Z,4.37
2018-09-17T02:19:09.879Z,4.37
2018-09-17T02:24:13.354Z,4.30
2018-09-17T02:29:16.792Z,4.20
2018-09-17T02:34:20.158Z,4.37
2018-09-17T02:39:23.549Z,4.13
2018-09-17T02:44:26.961Z,4.27
2018-09-17T02:49:30.380Z,4.20
2018-09-17T02:54:33.850Z,4.17
2018-09-17T02:59:37.262Z,4.27
2018-09-17T03:04:40.662Z,4.37
2018-09-17T03:09:44.055Z,4.47
2018-09-17T03:14:47.448Z,4.40
2018-09-17T03:19:50.894Z,4.07
2018-09-17T03:24:54.279Z,4.17
2018-09-17T03:29:57.634Z,4.57
2018-09-17T03:35:01.057Z,4.20
2018-09-17T03:40:04.451Z,4.13
2018-09-17T03:45:07.861Z,4.10
2018-09-17T03:50:11.283Z,4.10
2018-09-17T03:55:14.721Z,4.30
2018-09-17T04:00:18.140Z,4.13
2018-09-17T04:05:21.471Z,4.03
2018-09-17T04:10:24.889Z,4.07
2018-09-17T04:15:28.636Z,4.63
2018-09-17T04:20:32.041Z,4.40
2018-09-17T04:25:35.375Z,4.40
2018-09-17T04:30:38.768Z,4.07
2018-09-17T04:35:42.237Z,4.47
2018-09-17T04:40:46.477Z,4.37
2018-09-17T04:45:49.881Z,4.40
2018-09-17T04:50:53.265Z,4.47
2018-09-17T04:55:56.745Z,4.60
2018-09-17T05:01:00.491Z,4.53
2018-09-17T05:06:03.951Z,4.20
2018-09-17T05:11:07.546Z,4.80
2018-09-17T05:16:10.987Z,4.90
2018-09-17T05:21:14.381Z,4.70
2018-09-17T05:26:17.779Z,5.43
2018-09-17T05:31:21.339Z,4.70
2018-09-17T05:36:24.735Z,4.90
2018-09-17T05:41:28.099Z,4.87
2018-09-17T05:46:31.442Z,5.43
2018-09-17T05:51:34.838Z,4.77
2018-09-17T05:56:38.841Z,5.03
2018-09-17T06:01:42.198Z,5.30
2018-09-17T06:06:45.604Z,4.90
2018-09-17T06:11:49.227Z,5.40
2018-09-17T06:16:52.701Z,5.07
2018-09-17T06:21:56.409Z,5.10
2018-09-17T06:26:59.800Z,4.53
2018-09-17T06:32:03.814Z,5.60
2018-09-17T06:37:07.569Z,4.40
2018-09-17T06:42:10.946Z,5.07
2018-09-17T06:47:14.363Z,4.50
2018-09-17T06:52:17.742Z,5.20
2018-09-17T06:57:21.334Z,4.90
2018-09-17T07:02:24.719Z,4.93
2018-09-17T07:07:28.927Z,4.45
2018-09-17T07:12:32.315Z,4.60
2018-09-17T07:17:35.691Z,4.70
2018-09-17T07:22:39.141Z,4.20
2018-09-17T07:27:43.355Z,4.17
2018-09-17T07:32:46.939Z,4.60
2018-09-17T07:37:51.023Z,4.00
2018-09-17T07:42:55.157Z,4.40
2018-09-17T07:47:58.548Z,3.87
2018-09-17T07:53:02.142Z,4.07
2018-09-17T07:58:05.992Z,3.87
2018-09-17T08:03:09.496Z,3.40
2018-09-17T08:08:12.921Z,3.90
2018-09-17T08:13:16.254Z,3.80
2018-09-17T08:18:19.749Z,3.80
2018-09-17T08:23:23.181Z,3.50
2018-09-17T08:28:27.249Z,3.80
2018-09-17T08:33:30.639Z,3.30
2018-09-17T08:38:34.021Z,3.57
2018-09-17T08:43:37.500Z,3.47
2018-09-17T08:48:40.841Z,3.60
2018-09-17T08:53:44.221Z,3.90
2018-09-17T08:58:52.854Z,3.60
2018-09-17T09:04:01.600Z,3.43
2018-09-17T09:09:08.640Z,3.30
2018-09-17T09:14:17.400Z,3.83
2018-09-17T09:19:21.906Z,3.43
2018-09-17T09:24:25.374Z,3.30
2018-09-17T09:29:29.345Z,3.37
2018-09-17T09:34:32.723Z,3.30
2018-09-17T09:39:36.131Z,3.63
2018-09-17T09:44:39.527Z,3.03
2018-09-17T09:49:43.137Z,2.90
2018-09-17T09:54:46.795Z,3.07
2018-09-17T09:59:50.188Z,2.67
2018-09-17T10:04:53.564Z,3.00
2018-09-17T10:10:02.182Z,2.93
2018-09-17T10:15:11.136Z,2.80
2018-09-17T10:20:14.535Z,2.93
2018-09-17T10:25:18.217Z,3.00
2018-09-17T10:30:21.614Z,2.80
2018-09-17T10:35:25.001Z,2.80
2018-09-17T10:40:28.399Z,2.70
2018-09-17T10:45:31.822Z,2.80
2018-09-17T10:50:35.353Z,2.97
2018-09-17T10:55:38.764Z,2.77
2018-09-17T11:00:42.172Z,2.30
2018-09-17T11:05:46.316Z,2.50
2018-09-17T11:10:49.752Z,2.65
2018-09-17T11:15:53.102Z,2.67
2018-09-17T11:20:56.538Z,2.33
2018-09-17T11:25:59.911Z,2.35
2018-09-17T11:31:03.299Z,2.70
2018-09-17T11:36:06.770Z,2.67
2018-09-17T11:41:10.185Z,2.77
2018-09-17T11:46:13.590Z,2.72
2018-09-17T11:51:16.959Z,2.55
2018-09-17T11:56:20.332Z,2.35
2018-09-17T12:01:29.194Z,2.30
2018-09-17T12:06:38.001Z,2.72
2018-09-17T12:11:42.089Z,2.72
2018-09-17T12:16:45.466Z,2.30
2018-09-17T12:21:48.899Z,2.67
2018-09-17T12:26:52.272Z,2.42
2018-09-17T12:31:55.671Z,2.50
2018-09-17T12:36:59.075Z,2.30
2018-09-17T12:42:03.228Z,2.95
2018-09-17T12:47:06.698Z,2.42
2018-09-17T12:52:10.176Z,2.52
2018-09-17T12:57:13.621Z,2.65
2018-09-17T13:02:17.617Z,2.20
2018-09-17T13:07:21.164Z,2.58
2018-09-17T13:12:24.579Z,2.72
2018-09-17T13:17:28.644Z,2.65
2018-09-17T13:22:31.994Z,2.60
2018-09-17T13:27:35.414Z,2.70
2018-09-17T13:32:38.880Z,2.70
2018-09-17T13:37:42.272Z,2.53
2018-09-17T13:42:46.499Z,2.67
2018-09-17T13:47:50.011Z,2.73
2018-09-17T13:52:54.092Z,2.83
2018-09-17T13:57:57.630Z,2.73
2018-09-17T14:03:01.020Z,2.50
2018-09-17T14:08:05.373Z,3.10
2018-09-17T14:13:08.718Z,3.00
2018-09-17T14:18:12.157Z,2.98
2018-09-17T14:23:15.609Z,2.95
2018-09-17T14:28:19.118Z,2.72
2018-09-17T14:33:40.230Z,2.45
2018-09-17T14:38:43.696Z,2.80
2018-09-17T14:43:47.603Z,2.70
2018-09-17T14:48:50.990Z,2.90
2018-09-17T14:53:54.406Z,3.00
2018-09-17T14:58:58.617Z,2.52
2018-09-17T15:04:02.144Z,2.60
2018-09-17T15:09:07.744Z,2.92
2018-09-17T15:14:12.059Z,3.00
2018-09-17T15:19:15.395Z,3.02
2018-09-17T15:24:18.777Z,2.45
2018-09-17T15:29:22.875Z,2.80
2018-09-17T15:34:26.289Z,2.95
2018-09-17T15:39:29.692Z,2.80
2018-09-17T15:44:33.175Z,3.00
2018-09-17T15:49:36.514Z,2.70
2018-09-17T15:54:39.941Z,3.05
2018-09-17T15:59:44.169Z,2.80
2018-09-17T16:04:47.612Z,2.80
2018-09-17T16:09:51.052Z,3.10
2018-09-17T16:14:54.522Z,2.50
2018-09-17T16:19:58.055Z,2.70
2018-09-17T16:25:01.467Z,2.72
2018-09-17T16:30:06.111Z,3.60
2018-09-17T16:35:09.471Z,3.40
2018-09-17T16:40:13.598Z,3.02
2018-09-17T16:45:17.985Z,3.15
2018-09-17T16:50:21.392Z,3.20
2018-09-17T16:55:24.904Z,3.10
2018-09-17T17:00:28.377Z,3.00
2018-09-17T17:05:31.842Z,3.20
2018-09-17T17:10:35.320Z,2.92
2018-09-17T17:15:38.804Z,3.05
2018-09-17T17:20:42.284Z,3.17
2018-09-17T17:25:45.682Z,3.50
2018-09-17T17:30:49.315Z,3.25
2018-09-17T17:35:52.720Z,3.50
2018-09-17T17:40:56.356Z,3.30
2018-09-17T17:45:59.772Z,3.23
2018-09-17T17:51:04.100Z,3.35
2018-09-17T17:56:07.536Z,3.47
2018-09-17T18:01:10.997Z,3.45
2018-09-17T18:06:14.356Z,3.70
2018-09-17T18:11:17.918Z,3.60
2018-09-17T18:16:26.152Z,3.63
2018-09-17T18:21:31.534Z,4.12
2018-09-17T18:26:34.997Z,3.93
2018-09-17T18:31:38.337Z,3.90
2018-09-17T18:36:41.735Z,4.17
2018-09-17T18:41:45.325Z,4.03
2018-09-17T18:46:49.533Z,4.10
2018-09-17T18:51:52.913Z,4.57
2018-09-17T18:56:56.447Z,4.30
2018-09-17T19:02:00.008Z,4.13
2018-09-17T19:07:03.485Z,4.27
2018-09-17T19:12:07.456Z,4.60
2018-09-17T19:17:15.982Z,5.40
2018-09-17T19:22:24.952Z,4.27
2018-09-17T19:27:33.748Z,4.50
2018-09-17T19:32:37.846Z,4.57
2018-09-17T19:37:46.613Z,4.53
2018-09-17T19:42:50.602Z,4.30
2018-09-17T19:47:54.346Z,4.13
2018-09-17T19:52:57.699Z,4.60
2018-09-17T19:58:06.349Z,4.40
2018-09-17T20:03:09.856Z,4.30
2018-09-17T20:08:13.468Z,4.73
2018-09-17T20:13:16.941Z,5.03
2018-09-17T20:18:20.376Z,4.43
2018-09-17T20:23:23.783Z,4.80
2018-09-17T20:28:27.149Z,4.80
2018-09-17T20:33:32.598Z,5.37
2018-09-17T20:38:36.275Z,5.30
2018-09-17T20:43:40.135Z,4.87
2018-09-17T20:48:43.543Z,5.47
2018-09-17T20:53:47.002Z,5.60
2018-09-17T20:58:50.471Z,5.50
2018-09-17T21:03:53.905Z,5.67
2018-09-17T21:08:57.452Z,5.50
2018-09-17T21:14:00.860Z,5.40
2018-09-17T21:19:04.318Z,4.83
2018-09-17T21:24:07.651Z,5.10
2018-09-17T21:29:11.217Z,5.70
2018-09-17T21:34:14.631Z,5.10
2018-09-17T21:39:18.771Z,5.20
2018-09-17T21:44:22.205Z,5.50
2018-09-17T21:49:25.698Z,5.70
2018-09-17T21:54:29.292Z,5.37
2018-09-17T21:59:32.750Z,5.63
2018-09-17T22:04:36.158Z,5.37
2018-09-17T22:09:39.584Z,5.43
2018-09-17T22:14:42.986Z,5.90
2018-09-17T22:19:46.496Z,5.60
2018-09-17T22:24:50.011Z,6.10
2018-09-17T22:29:53.447Z,5.80
2018-09-17T22:34:56.981Z,5.57
2018-09-17T22:40:00.347Z,6.20
2018-09-17T22:45:03.735Z,5.63
2018-09-17T22:50:07.111Z,5.83
2018-09-17T22:55:10.488Z,6.30
2018-09-17T23:00:13.887Z,5.83
2018-09-17T23:05:17.418Z,5.93
2018-09-17T23:10:20.779Z,5.77
2018-09-17T23:15:24.115Z,6.37
2018-09-17T23:20:27.564Z,6.80
2018-09-17T23:25:30.959Z,6.90
2018-09-17T23:30:34.387Z,6.33
2018-09-17T23:35:37.767Z,6.50
2018-09-17T23:40:41.216Z,6.77
2018-09-17T23:45:44.567Z,6.67
2018-09-17T23:50:47.950Z,6.30
2018-09-17T23:55:51.348Z,6.33
